AVA792 SCEL-SAEZ
Flight info
| Callsign | AVA792 |
|---|---|
| Flight time | N/A |
| Altitude | 23000 |
| Route | NEBEG7A NEBEG DCT KOTNI M424 EZE R107J |
| Aircraft | A319/M-SDE3FGHIRWY/LB1 |
Departure
| Time | N/A |
|---|---|
| Airport | Comodoro Arturo Merino Benítez International Airport (SCEL) |
Arrival
| Time | 2026-05-07 16:12 |
|---|---|
| Airport | Ezeiza International Airport - Ministro Pistarini (SAEZ) |
| Time | Latitude | Longitude | Altitude | Speed | Heading |
|---|---|---|---|---|---|
| 2026-05-07 15:33 | -34.86879 | -63.54524 | 38919 ft | 490 kts | 96° |
| 2026-05-07 15:33 | -34.87220 | -63.50408 | 38919 ft | 490 kts | 96° |
| 2026-05-07 15:33 | -34.87912 | -63.42165 | 38909 ft | 490 kts | 96° |
| 2026-05-07 15:34 | -34.88593 | -63.33922 | 38917 ft | 490 kts | 95° |
| 2026-05-07 15:34 | -34.89262 | -63.25671 | 38918 ft | 490 kts | 95° |
| 2026-05-07 15:35 | -34.89917 | -63.17426 | 38909 ft | 490 kts | 95° |
| 2026-05-07 15:35 | -34.90572 | -63.09179 | 38890 ft | 490 kts | 95° |
| 2026-05-07 15:36 | -34.91229 | -63.00923 | 38884 ft | 491 kts | 95° |
| 2026-05-07 15:36 | -34.91884 | -62.92664 | 38871 ft | 491 kts | 95° |
| 2026-05-07 15:37 | -34.92520 | -62.84396 | 38868 ft | 491 kts | 95° |
| 2026-05-07 15:37 | -34.93151 | -62.76115 | 38857 ft | 492 kts | 94° |
| 2026-05-07 15:38 | -34.93790 | -62.67832 | 38862 ft | 492 kts | 94° |
| 2026-05-07 15:38 | -34.94421 | -62.59538 | 38868 ft | 492 kts | 94° |
| 2026-05-07 15:39 | -34.95050 | -62.51251 | 38850 ft | 492 kts | 94° |
| 2026-05-07 15:39 | -34.95657 | -62.42969 | 38861 ft | 491 kts | 93° |
| 2026-05-07 15:40 | -34.96260 | -62.34695 | 38858 ft | 491 kts | 93° |
| 2026-05-07 15:40 | -34.96821 | -62.26416 | 38854 ft | 491 kts | 91° |
| 2026-05-07 15:41 | -34.97112 | -62.18128 | 38841 ft | 490 kts | 89° |
| 2026-05-07 15:41 | -34.97281 | -62.09835 | 38841 ft | 490 kts | 89° |
| 2026-05-07 15:42 | -34.97494 | -62.01539 | 38834 ft | 490 kts | 90° |
| 2026-05-07 15:42 | -34.97771 | -61.93245 | 38836 ft | 491 kts | 90° |
| 2026-05-07 15:43 | -34.98054 | -61.84952 | 38836 ft | 491 kts | 89° |
| 2026-05-07 15:43 | -34.98303 | -61.76650 | 38838 ft | 491 kts | 89° |
| 2026-05-07 15:44 | -34.98541 | -61.68358 | 38828 ft | 490 kts | 89° |
| 2026-05-07 15:44 | -34.98778 | -61.60061 | 38831 ft | 490 kts | 89° |
| 2026-05-07 15:45 | -34.99004 | -61.51767 | 38825 ft | 490 kts | 89° |
| 2026-05-07 15:45 | -34.99227 | -61.43478 | 38817 ft | 490 kts | 89° |
| 2026-05-07 15:46 | -34.99537 | -61.31050 | 38785 ft | 490 kts | 88° |
| 2026-05-07 15:47 | -34.99739 | -61.22752 | 38781 ft | 491 kts | 88° |
| 2026-05-07 15:47 | -34.99943 | -61.14442 | 38779 ft | 492 kts | 88° |
| 2026-05-07 15:48 | -35.00138 | -61.06115 | 38787 ft | 492 kts | 88° |
| 2026-05-07 15:48 | -35.00327 | -60.97786 | 38757 ft | 493 kts | 87° |
| 2026-05-07 15:49 | -35.00515 | -60.89428 | 38755 ft | 494 kts | 87° |
| 2026-05-07 15:49 | -35.00696 | -60.81059 | 38748 ft | 495 kts | 87° |
| 2026-05-07 15:50 | -35.00875 | -60.72675 | 38727 ft | 496 kts | 86° |
| 2026-05-07 15:50 | -35.01038 | -60.64281 | 38736 ft | 497 kts | 86° |
| 2026-05-07 15:51 | -35.01189 | -60.55871 | 38734 ft | 497 kts | 86° |
| 2026-05-07 15:51 | -35.01338 | -60.47443 | 38674 ft | 499 kts | 86° |
| 2026-05-07 15:51 | -35.01414 | -60.43225 | 38420 ft | 497 kts | 85° |
| 2026-05-07 15:52 | -35.01493 | -60.39033 | 38148 ft | 494 kts | 85° |
| 2026-05-07 15:52 | -35.01569 | -60.34857 | 37879 ft | 493 kts | 84° |
| 2026-05-07 15:52 | -35.01641 | -60.30684 | 37613 ft | 493 kts | 84° |
| 2026-05-07 15:52 | -35.01709 | -60.26517 | 37348 ft | 492 kts | 84° |
| 2026-05-07 15:53 | -35.01776 | -60.22355 | 36734 ft | 494 kts | 84° |
| 2026-05-07 15:53 | -35.01839 | -60.18163 | 35972 ft | 498 kts | 83° |
| 2026-05-07 15:53 | -35.01900 | -60.13932 | 35216 ft | 499 kts | 81° |
| 2026-05-07 15:53 | -35.01964 | -60.09724 | 34664 ft | 496 kts | 81° |
| 2026-05-07 15:54 | -35.02028 | -60.05524 | 33935 ft | 497 kts | 80° |
| 2026-05-07 15:54 | -35.02091 | -60.01311 | 33148 ft | 498 kts | 79° |
| 2026-05-07 15:54 | -35.02152 | -59.97096 | 32309 ft | 498 kts | 79° |
| 2026-05-07 15:54 | -35.02211 | -59.92878 | 31465 ft | 498 kts | 79° |
| 2026-05-07 15:55 | -35.02267 | -59.88658 | 30607 ft | 498 kts | 79° |
| 2026-05-07 15:55 | -35.02319 | -59.84432 | 29604 ft | 500 kts | 79° |
| 2026-05-07 15:55 | -35.02366 | -59.80193 | 28495 ft | 501 kts | 79° |
| 2026-05-07 15:55 | -35.02416 | -59.75951 | 27480 ft | 500 kts | 80° |
| 2026-05-07 15:56 | -35.02469 | -59.71733 | 26373 ft | 497 kts | 81° |
| 2026-05-07 15:56 | -35.02525 | -59.67541 | 25324 ft | 494 kts | 81° |
| 2026-05-07 15:56 | -35.02501 | -59.63396 | 24392 ft | 482 kts | 76° |
| 2026-05-07 15:56 | -35.02029 | -59.59457 | 23754 ft | 459 kts | 67° |
| 2026-05-07 15:57 | -35.01350 | -59.55700 | 23129 ft | 450 kts | 67° |
| 2026-05-07 15:57 | -35.00687 | -59.52009 | 22475 ft | 442 kts | 67° |
| 2026-05-07 15:57 | -35.00042 | -59.48397 | 21906 ft | 433 kts | 67° |
| 2026-05-07 15:57 | -34.99403 | -59.44842 | 21338 ft | 426 kts | 67° |
| 2026-05-07 15:58 | -34.98771 | -59.41352 | 20813 ft | 421 kts | 68° |
| 2026-05-07 15:58 | -34.98135 | -59.37879 | 20281 ft | 419 kts | 68° |
| 2026-05-07 15:58 | -34.97500 | -59.34427 | 19776 ft | 417 kts | 68° |
| 2026-05-07 15:58 | -34.96869 | -59.30989 | 19233 ft | 416 kts | 68° |
| 2026-05-07 15:59 | -34.96240 | -59.27573 | 18769 ft | 413 kts | 69° |
| 2026-05-07 15:59 | -34.95618 | -59.24178 | 18250 ft | 411 kts | 69° |
| 2026-05-07 15:59 | -34.94997 | -59.20790 | 17689 ft | 410 kts | 70° |
| 2026-05-07 15:59 | -34.94380 | -59.17423 | 17148 ft | 407 kts | 71° |
| 2026-05-07 16:00 | -34.94106 | -59.13900 | 16721 ft | 427 kts | 86° |
| 2026-05-07 16:00 | -34.94216 | -59.10301 | 16101 ft | 425 kts | 88° |
| 2026-05-07 16:00 | -34.94345 | -59.06724 | 15648 ft | 418 kts | 89° |
| 2026-05-07 16:00 | -34.94479 | -59.03233 | 15133 ft | 412 kts | 89° |
| 2026-05-07 16:01 | -34.94610 | -58.99757 | 14492 ft | 411 kts | 90° |
| 2026-05-07 16:01 | -34.94733 | -58.96288 | 13841 ft | 410 kts | 90° |
| 2026-05-07 16:01 | -34.94852 | -58.92828 | 13148 ft | 409 kts | 91° |
| 2026-05-07 16:01 | -34.94968 | -58.89393 | 12483 ft | 405 kts | 91° |
| 2026-05-07 16:02 | -34.95080 | -58.85992 | 11831 ft | 400 kts | 91° |
| 2026-05-07 16:02 | -34.95190 | -58.82640 | 11183 ft | 394 kts | 91° |
| 2026-05-07 16:02 | -34.95298 | -58.79330 | 10623 ft | 387 kts | 90° |
| 2026-05-07 16:02 | -34.95404 | -58.76143 | 10490 ft | 368 kts | 90° |
| 2026-05-07 16:03 | -34.95504 | -58.73112 | 10373 ft | 351 kts | 91° |
| 2026-05-07 16:03 | -34.95596 | -58.70209 | 10246 ft | 336 kts | 90° |
| 2026-05-07 16:03 | -34.95681 | -58.67424 | 10124 ft | 323 kts | 89° |
| 2026-05-07 16:03 | -34.95762 | -58.64733 | 9968 ft | 314 kts | 90° |
| 2026-05-07 16:04 | -34.95840 | -58.62108 | 9772 ft | 309 kts | 90° |
| 2026-05-07 16:04 | -34.95920 | -58.59503 | 9434 ft | 307 kts | 89° |
| 2026-05-07 16:04 | -34.95999 | -58.56907 | 9066 ft | 307 kts | 90° |
| 2026-05-07 16:04 | -34.96079 | -58.54320 | 8813 ft | 305 kts | 91° |
| 2026-05-07 16:05 | -34.96156 | -58.51753 | 8464 ft | 303 kts | 91° |
| 2026-05-07 16:05 | -34.96232 | -58.49194 | 8086 ft | 303 kts | 91° |
| 2026-05-07 16:05 | -34.96309 | -58.46646 | 7677 ft | 299 kts | 92° |
| 2026-05-07 16:05 | -34.96386 | -58.44140 | 7138 ft | 295 kts | 92° |
| 2026-05-07 16:06 | -34.96459 | -58.41645 | 6587 ft | 294 kts | 92° |
| 2026-05-07 16:06 | -34.96527 | -58.39183 | 6316 ft | 284 kts | 93° |
| 2026-05-07 16:06 | -34.96482 | -58.36838 | 6175 ft | 271 kts | 77° |
| 2026-05-07 16:06 | -34.95733 | -58.34816 | 5897 ft | 261 kts | 49° |
| 2026-05-07 16:07 | -34.94346 | -58.33456 | 5392 ft | 257 kts | 21° |
| 2026-05-07 16:07 | -34.92632 | -58.32956 | 4855 ft | 254 kts | 2° |
| 2026-05-07 16:07 | -34.90853 | -58.32692 | 4175 ft | 262 kts | 3° |
| 2026-05-07 16:07 | -34.89027 | -58.32408 | 3559 ft | 266 kts | 4° |
| 2026-05-07 16:08 | -34.87228 | -58.32349 | 3305 ft | 252 kts | 349° |
| 2026-05-07 16:08 | -34.85589 | -58.32896 | 3110 ft | 237 kts | 328° |
| 2026-05-07 16:08 | -34.84498 | -58.34159 | 2970 ft | 203 kts | 292° |
| 2026-05-07 16:08 | -34.84310 | -58.35719 | 2762 ft | 181 kts | 265° |
| 2026-05-07 16:09 | -34.84265 | -58.37208 | 2529 ft | 170 kts | 268° |
| 2026-05-07 16:09 | -34.84209 | -58.38572 | 2405 ft | 153 kts | 267° |
| 2026-05-07 16:09 | -34.84166 | -58.39808 | 2247 ft | 142 kts | 266° |
| 2026-05-07 16:09 | -34.84103 | -58.41029 | 2047 ft | 149 kts | 269° |
| 2026-05-07 16:10 | -34.84019 | -58.42221 | 1842 ft | 136 kts | 271° |
| 2026-05-07 16:10 | -34.83873 | -58.43341 | 1634 ft | 133 kts | 273° |
| 2026-05-07 16:10 | -34.83721 | -58.44452 | 1410 ft | 133 kts | 273° |
| 2026-05-07 16:10 | -34.83581 | -58.45563 | 1182 ft | 132 kts | 273° |
| 2026-05-07 16:11 | -34.83431 | -58.46671 | 956 ft | 138 kts | 275° |
| 2026-05-07 16:11 | -34.83242 | -58.47889 | 774 ft | 153 kts | 276° |
| 2026-05-07 16:11 | -34.83005 | -58.49179 | 503 ft | 157 kts | 280° |
| 2026-05-07 16:11 | -34.82773 | -58.50472 | 296 ft | 159 kts | 282° |
| 2026-05-07 16:12 | -34.82541 | -58.51805 | 110 ft | 163 kts | 280° |
| 2026-05-07 16:12 | -34.82327 | -58.53012 | 70 ft | 111 kts | 282° |
| 2026-05-07 16:12 | -34.82245 | -58.53492 | 70 ft | 4 kts | 282° |
| 2026-05-07 16:12 | -34.82245 | -58.53493 | 70 ft | 1 kts | 282° |
| 2026-05-07 16:13 | -34.82221 | -58.53621 | 67 ft | 31 kts | 284° |
| 2026-05-07 16:13 | -34.82170 | -58.53864 | 70 ft | 26 kts | 293° |
| 2026-05-07 16:13 | -34.82084 | -58.53865 | 70 ft | 8 kts | 50° |
| 2026-05-07 16:13 | -34.82062 | -58.53833 | 67 ft | 0 kts | 49° |
| 2026-05-07 16:16 | -34.82061 | -58.53831 | 67 ft | 2 kts | 49° |
| 2026-05-07 16:16 | -34.82032 | -58.53791 | 70 ft | 11 kts | 47° |
| 2026-05-07 16:16 | -34.81959 | -58.53702 | 64 ft | 18 kts | 44° |
| 2026-05-07 16:16 | -34.81840 | -58.53671 | 65 ft | 20 kts | 338° |
| 2026-05-07 16:17 | -34.81701 | -58.53752 | 67 ft | 23 kts | 333° |
| 2026-05-07 16:17 | -34.81564 | -58.53708 | 68 ft | 20 kts | 45° |
| 2026-05-07 16:17 | -34.81452 | -58.53702 | 68 ft | 18 kts | 329° |
| 2026-05-07 16:17 | -34.81414 | -58.53742 | 66 ft | 0 kts | 316° |